createdAt,value
2019-05-11T00:01:51.946Z,97009.19
2019-05-11T00:04:18.723Z,97000.32
2019-05-11T00:06:45.509Z,96993.78
2019-05-11T00:09:12.302Z,96981.52
2019-05-11T00:11:39.077Z,96983.33
2019-05-11T00:14:05.858Z,96981.52
2019-05-11T00:16:32.650Z,96981.52
2019-05-11T00:18:59.423Z,96982.03
2019-05-11T00:21:26.184Z,96981.23
2019-05-11T00:23:52.958Z,96977.31
2019-05-11T00:26:19.738Z,96968.69
2019-05-11T00:28:46.500Z,96970.27
2019-05-11T00:31:13.297Z,96964.25
2019-05-11T00:33:40.094Z,96949.09
2019-05-11T00:36:06.859Z,96888.77
2019-05-11T00:38:33.624Z,96950.66
2019-05-11T00:41:00.402Z,96941.52
2019-05-11T00:43:27.180Z,96938.11
2019-05-11T00:45:53.971Z,96933.67
2019-05-11T00:48:20.813Z,96926.36
2019-05-11T00:50:47.600Z,96915.11
2019-05-11T00:53:14.374Z,96913.56
2019-05-11T00:55:41.160Z,96902.05
2019-05-11T00:58:08.290Z,96900.22
2019-05-11T01:00:35.144Z,96900.22
2019-05-11T01:03:01.905Z,96902.83
2019-05-11T01:05:28.745Z,96903.11
2019-05-11T01:07:55.550Z,96906.75
2019-05-11T01:10:29.048Z,96912.49
2019-05-11T01:12:50.835Z,96909.37
2019-05-11T01:15:17.712Z,96905.45
2019-05-11T01:17:44.506Z,96909.61
2019-05-11T01:20:11.305Z,96907.78
2019-05-11T01:22:38.081Z,96905.96
2019-05-11T01:25:04.887Z,96915.91
2019-05-11T01:27:31.649Z,96922.44
2019-05-11T01:29:58.459Z,96922.95
2019-05-11T01:32:25.248Z,96919.03
2019-05-11T01:34:52.038Z,96913.53
2019-05-11T01:37:18.814Z,96915.11
2019-05-11T01:39:45.597Z,96933.41
2019-05-11T01:42:12.391Z,96912.49
2019-05-11T01:44:39.173Z,96905.45
2019-05-11T01:47:05.959Z,96896.81
2019-05-11T01:49:32.725Z,96896.81
2019-05-11T01:51:59.540Z,96900.47
2019-05-11T01:54:26.299Z,96896.54
2019-05-11T01:56:53.073Z,96893.69
2019-05-11T01:59:19.856Z,96907.55
2019-05-11T02:01:46.684Z,96901.52
2019-05-11T02:04:13.462Z,96890.80
2019-05-11T02:06:40.239Z,96890.80
2019-05-11T02:09:07.190Z,96894.72
2019-05-11T02:11:33.961Z,96895.51
2019-05-11T02:14:00.751Z,96889.77
2019-05-11T02:16:27.521Z,96882.95
2019-05-11T02:18:54.324Z,96882.44
2019-05-11T02:21:21.132Z,96880.62
2019-05-11T02:23:47.922Z,96867.80
2019-05-11T02:26:14.721Z,96861.53
2019-05-11T02:28:41.561Z,96862.56
2019-05-11T02:31:08.375Z,96861.02
2019-05-11T02:33:35.207Z,96865.97
2019-05-11T02:36:01.995Z,96867.00
2019-05-11T02:38:28.767Z,96864.94
2019-05-11T02:40:55.559Z,96868.07
2019-05-11T02:43:22.332Z,96858.13
2019-05-11T02:45:49.112Z,96867.28
2019-05-11T02:48:15.895Z,96859.16
2019-05-11T02:50:42.744Z,96853.42
2019-05-11T02:53:09.528Z,96852.12
2019-05-11T02:55:36.325Z,96865.97
2019-05-11T02:58:03.096Z,96860.50
2019-05-11T03:00:29.881Z,96844.28
2019-05-11T03:02:56.658Z,96831.21
2019-05-11T03:05:23.421Z,96819.45
2019-05-11T03:07:50.227Z,96824.16
2019-05-11T03:10:16.999Z,96809.00
2019-05-11T03:12:43.771Z,96817.11
2019-05-11T03:15:10.545Z,96816.84
2019-05-11T03:17:37.333Z,96815.02
2019-05-11T03:20:04.123Z,96807.17
2019-05-11T03:22:30.891Z,96802.19
2019-05-11T03:24:57.703Z,96794.87
2019-05-11T03:27:24.487Z,96787.81
2019-05-11T03:29:51.253Z,96789.91
2019-05-11T03:32:18.061Z,96781.55
2019-05-11T03:34:44.821Z,96780.77
2019-05-11T03:37:11.597Z,96784.96
2019-05-11T03:39:38.385Z,96775.30
2019-05-11T03:42:14.580Z,96777.64
2019-05-11T03:44:33.746Z,96771.63
2019-05-11T03:47:00.524Z,96760.90
2019-05-11T03:49:27.332Z,96754.12
2019-05-11T03:51:54.111Z,96754.64
2019-05-11T03:54:20.962Z,96747.31
2019-05-11T03:56:47.746Z,96752.02
2019-05-11T03:59:14.526Z,96753.33
2019-05-11T04:01:41.309Z,96760.66
2019-05-11T04:04:08.100Z,96770.83
2019-05-11T04:06:34.891Z,96766.91
2019-05-11T04:09:01.667Z,96782.08
2019-05-11T04:11:28.471Z,96782.08
2019-05-11T04:13:55.293Z,96792.02
2019-05-11T04:16:22.087Z,96791.73
2019-05-11T04:18:48.936Z,96800.09
2019-05-11T04:21:15.709Z,96806.38
2019-05-11T04:23:42.477Z,96794.35
2019-05-11T04:26:09.245Z,96779.19
2019-05-11T04:28:36.032Z,96771.35
2019-05-11T04:31:02.792Z,96763.00
2019-05-11T04:33:32.963Z,96760.38
2019-05-11T04:35:58.068Z,96756.98
2019-05-11T04:38:24.871Z,96760.38
2019-05-11T04:40:51.653Z,96763.00
2019-05-11T04:43:18.513Z,96782.08
2019-05-11T04:45:45.314Z,96771.63
2019-05-11T04:48:12.093Z,96773.72
2019-05-11T04:50:38.887Z,96770.83
2019-05-11T04:53:05.672Z,96770.31
2019-05-11T04:55:32.551Z,96775.02
2019-05-11T04:57:59.330Z,96775.02
2019-05-11T05:00:26.112Z,96783.38
2019-05-11T05:02:52.910Z,96790.70
2019-05-11T05:05:19.755Z,96786.52
2019-05-11T05:07:48.814Z,96782.59
2019-05-11T05:10:19.959Z,96679.86
2019-05-11T05:12:50.384Z,96783.11
2019-05-11T05:15:12.087Z,96785.72
2019-05-11T05:17:38.862Z,96795.14
2019-05-11T05:20:05.620Z,96799.58
2019-05-11T05:22:32.432Z,96802.98
2019-05-11T05:24:59.207Z,96787.28
2019-05-11T05:27:25.988Z,96774.48
2019-05-11T05:29:52.750Z,96767.95
2019-05-11T05:32:19.512Z,96785.72
2019-05-11T05:34:46.329Z,96775.79
2019-05-11T05:37:13.109Z,96772.66
2019-05-11T05:39:39.878Z,96770.05
2019-05-11T05:42:06.684Z,96769.02
2019-05-11T05:44:33.457Z,96764.81
2019-05-11T05:47:00.245Z,96769.53
2019-05-11T05:49:27.026Z,96768.22
2019-05-11T05:51:57.811Z,96765.61
2019-05-11T05:54:22.370Z,96769.53
2019-05-11T05:56:49.617Z,96763.52
2019-05-11T05:59:16.412Z,96745.22
2019-05-11T06:01:43.176Z,96751.23
2019-05-11T06:04:09.962Z,96745.22
2019-05-11T06:06:36.732Z,96748.63
2019-05-11T06:09:05.170Z,96749.14
2019-05-11T06:11:31.952Z,96746.53
2019-05-11T06:13:58.730Z,96746.53
2019-05-11T06:16:25.508Z,96749.93
2019-05-11T06:18:52.269Z,96749.41
2019-05-11T06:21:19.059Z,96752.55
2019-05-11T06:23:45.847Z,96747.31
2019-05-11T06:26:12.620Z,96736.08
2019-05-11T06:28:39.384Z,96728.75
2019-05-11T06:31:06.169Z,96723.80
2019-05-11T06:33:32.933Z,96725.38
2019-05-11T06:35:59.764Z,96727.47
2019-05-11T06:38:26.569Z,96733.48
2019-05-11T06:40:53.341Z,96734.27
2019-05-11T06:43:20.290Z,96736.09
2019-05-11T06:45:47.147Z,96732.72
2019-05-11T06:48:13.938Z,96734.02
2019-05-11T06:50:40.712Z,96733.23
2019-05-11T06:53:07.493Z,96726.45
2019-05-11T06:55:34.280Z,96734.81
2019-05-11T06:58:01.060Z,96740.83
2019-05-11T07:00:27.827Z,96748.16
2019-05-11T07:02:54.615Z,96752.07
2019-05-11T07:05:21.419Z,96753.89
2019-05-11T07:07:48.219Z,96760.18
2019-05-11T07:10:15.036Z,96762.80
2019-05-11T07:12:43.526Z,96770.64
2019-05-11T07:15:10.317Z,96774.06
2019-05-11T07:17:37.105Z,96771.45
2019-05-11T07:20:03.907Z,96770.94
2019-05-11T07:22:30.695Z,96758.39
2019-05-11T07:24:57.507Z,96759.69
2019-05-11T07:27:24.363Z,96757.08
2019-05-11T07:29:51.116Z,96766.50
2019-05-11T07:32:25.029Z,96758.66
2019-05-11T07:34:48.581Z,96754.47
2019-05-11T07:37:14.922Z,96755.01
2019-05-11T07:39:41.698Z,96752.91
2019-05-11T07:42:08.507Z,96748.99
2019-05-11T07:44:38.810Z,96752.13
2019-05-11T07:47:03.808Z,96742.98
2019-05-11T07:49:30.664Z,96733.04
2019-05-11T07:51:58.649Z,96725.98
2019-05-11T07:54:27.929Z,96728.09
2019-05-11T07:56:54.240Z,96733.31
2019-05-11T07:59:21.053Z,96730.18
2019-05-11T08:01:48.070Z,96733.31
2019-05-11T08:04:14.990Z,96740.63
2019-05-11T08:06:42.038Z,96745.07
2019-05-11T08:09:08.832Z,96743.77
2019-05-11T08:11:35.601Z,96740.63
2019-05-11T08:14:02.397Z,96742.73
2019-05-11T08:16:29.307Z,96739.59
2019-05-11T08:18:58.600Z,96729.66
2019-05-11T08:21:24.604Z,96730.97
2019-05-11T08:23:51.372Z,96725.22
2019-05-11T08:26:19.018Z,96727.31
2019-05-11T08:28:48.432Z,96726.80
2019-05-11T08:31:14.508Z,96724.45
2019-05-11T08:33:41.297Z,96710.08
2019-05-11T08:36:08.450Z,96712.69
2019-05-11T08:38:37.598Z,96712.17
2019-05-11T08:41:03.814Z,96712.45
2019-05-11T08:43:30.842Z,96698.59
2019-05-11T08:45:57.951Z,96703.30
2019-05-11T08:48:24.880Z,96714.54
2019-05-11T08:50:51.737Z,96708.80
2019-05-11T08:53:18.506Z,96705.66
2019-05-11T08:55:45.303Z,96719.00
2019-05-11T08:58:12.100Z,96711.16
2019-05-11T09:00:39.094Z,96701.49
2019-05-11T09:03:08.371Z,96707.23
2019-05-11T09:05:34.450Z,96708.03
2019-05-11T09:08:01.250Z,96706.20
2019-05-11T09:10:28.294Z,96702.80
2019-05-11T09:12:55.189Z,96706.98
2019-05-11T09:15:35.960Z,96698.88
2019-05-11T09:17:50.651Z,96703.86
2019-05-11T09:20:18.042Z,96710.13
2019-05-11T09:22:44.983Z,96698.63
2019-05-11T09:25:11.841Z,96702.33
2019-05-11T09:27:38.649Z,96702.03
2019-05-11T09:30:08.096Z,96705.16
2019-05-11T09:32:33.963Z,96716.41
2019-05-11T09:35:00.745Z,96715.63
2019-05-11T09:37:27.837Z,96718.02
2019-05-11T09:39:54.873Z,96716.98
2019-05-11T09:42:21.635Z,96709.95
2019-05-11T09:44:48.670Z,96713.88
2019-05-11T09:47:15.492Z,96718.28
2019-05-11T09:49:47.477Z,96719.10
2019-05-11T09:52:10.780Z,96722.20
2019-05-11T09:54:38.207Z,96718.80
2019-05-11T09:57:05.271Z,96738.41
2019-05-11T09:59:32.037Z,96709.66
2019-05-11T10:01:59.103Z,96704.42
2019-05-11T10:04:25.999Z,96701.30
2019-05-11T10:06:52.892Z,96704.95
2019-05-11T10:09:19.684Z,96712.56
2019-05-11T10:11:48.028Z,96720.11
2019-05-11T10:14:15.000Z,96727.95
2019-05-11T10:16:41.795Z,96730.87
2019-05-11T10:19:08.718Z,96729.26
2019-05-11T10:21:35.537Z,96741.02
2019-05-11T10:24:02.323Z,96732.66
2019-05-11T10:26:29.104Z,96743.64
2019-05-11T10:28:58.316Z,96741.81
2019-05-11T10:31:24.424Z,96742.33
2019-05-11T10:33:51.277Z,96741.81
2019-05-11T10:36:18.834Z,96741.81
2019-05-11T10:38:48.430Z,96736.09
2019-05-11T10:41:14.501Z,96727.95
2019-05-11T10:43:41.362Z,96724.82
2019-05-11T10:46:17.106Z,96713.05
2019-05-11T10:48:38.790Z,96712.27
2019-05-11T10:51:05.197Z,96707.83
2019-05-11T10:53:31.978Z,96718.50
2019-05-11T10:55:58.765Z,96718.28
2019-05-11T10:58:25.540Z,96705.73
2019-05-11T11:00:52.343Z,96705.73
2019-05-11T11:03:19.114Z,96723.02
2019-05-11T11:05:45.940Z,96719.59
2019-05-11T11:08:12.745Z,96726.13
2019-05-11T11:10:39.518Z,96718.28
2019-05-11T11:13:08.309Z,96721.72
2019-05-11T11:15:34.826Z,96734.48
2019-05-11T11:18:01.642Z,96741.02
2019-05-11T11:20:28.420Z,96736.59
2019-05-11T11:22:55.226Z,96739.72
2019-05-11T11:25:22.023Z,96731.36
2019-05-11T11:27:49.096Z,96726.13
2019-05-11T11:30:17.979Z,96669.57
2019-05-11T11:32:44.435Z,96699.50
2019-05-11T11:35:11.224Z,96714.88
2019-05-11T11:37:38.672Z,96716.19
2019-05-11T11:40:05.687Z,96716.70
2019-05-11T11:42:32.466Z,96704.95
2019-05-11T11:44:59.232Z,96697.89
2019-05-11T11:47:28.059Z,96701.81
2019-05-11T11:49:54.616Z,96698.68
2019-05-11T11:52:21.397Z,96711.27
2019-05-11T11:54:48.196Z,96722.51
2019-05-11T11:57:14.989Z,96723.30
2019-05-11T11:59:41.782Z,96712.31
2019-05-11T12:02:08.752Z,96713.36
2019-05-11T12:04:35.681Z,96712.84
2019-05-11T12:07:02.753Z,96717.30
2019-05-11T12:09:29.551Z,96710.49
2019-05-11T12:11:58.156Z,96707.87
2019-05-11T12:14:24.898Z,96708.15
2019-05-11T12:17:03.995Z,96710.77
2019-05-11T12:19:20.181Z,96712.59
2019-05-11T12:21:48.374Z,96710.49
2019-05-11T12:24:15.402Z,96716.52
2019-05-11T12:26:42.189Z,96728.27
2019-05-11T12:29:08.968Z,96720.16
2019-05-11T12:31:37.877Z,96730.09
2019-05-11T12:34:04.532Z,96725.91
2019-05-11T12:36:31.316Z,96733.23
2019-05-11T12:38:58.162Z,96734.02
2019-05-11T12:41:25.011Z,96728.80
2019-05-11T12:43:51.796Z,96735.08
2019-05-11T12:46:19.098Z,96730.89
2019-05-11T12:48:48.251Z,96729.33
2019-05-11T12:51:14.443Z,96736.39
2019-05-11T12:53:41.212Z,96732.47
2019-05-11T12:56:08.394Z,96723.31
2019-05-11T12:58:35.344Z,96716.80
2019-05-11T13:01:02.125Z,96707.65
2019-05-11T13:03:28.897Z,96712.36
2019-05-11T13:05:55.756Z,96709.25
2019-05-11T13:08:22.532Z,96705.84
2019-05-11T13:10:49.312Z,96706.68
2019-05-11T13:13:18.178Z,96697.23
2019-05-11T13:15:44.597Z,96698.79
2019-05-11T13:18:11.374Z,96692.77
2019-05-11T13:20:38.177Z,96684.41
2019-05-11T13:23:04.963Z,96690.16
2019-05-11T13:25:31.741Z,96691.98
2019-05-11T13:27:58.512Z,96682.05
2019-05-11T13:30:27.620Z,96692.77
2019-05-11T13:32:53.802Z,96719.44
2019-05-11T13:35:20.595Z,96723.35
2019-05-11T13:37:47.925Z,96716.55
2019-05-11T13:40:15.095Z,96715.24
2019-05-11T13:42:41.958Z,96721.52
2019-05-11T13:45:08.796Z,96722.30
2019-05-11T13:47:49.376Z,96729.63
2019-05-11T13:50:04.162Z,96737.98
2019-05-11T13:52:30.950Z,96730.66
2019-05-11T13:54:58.496Z,96739.29
2019-05-11T13:57:25.518Z,96758.62
2019-05-11T13:59:52.285Z,96759.41
2019-05-11T14:02:19.066Z,96773.80
2019-05-11T14:04:47.599Z,96771.70
2019-05-11T14:07:14.354Z,96782.42
2019-05-11T14:09:41.142Z,96778.23
2019-05-11T14:12:07.917Z,96786.08
2019-05-11T14:14:34.714Z,96786.87
2019-05-11T14:17:01.500Z,96793.92
2019-05-11T14:19:29.204Z,96812.74
2019-05-11T14:21:57.977Z,96802.28
2019-05-11T14:24:24.569Z,96806.20
2019-05-11T14:26:51.717Z,96805.41
2019-05-11T14:29:18.497Z,96803.59
2019-05-11T14:31:45.332Z,96815.87
2019-05-11T14:34:12.179Z,96830.52
2019-05-11T14:36:39.075Z,96824.50
2019-05-11T14:39:08.385Z,96823.72
2019-05-11T14:41:34.998Z,96760.98
2019-05-11T14:44:01.779Z,96830.25
2019-05-11T14:46:28.796Z,96831.04
2019-05-11T14:48:55.586Z,96823.72
2019-05-11T14:51:22.412Z,96828.42
2019-05-11T14:53:49.214Z,96838.09
2019-05-11T14:56:18.761Z,96849.59
2019-05-11T14:58:44.806Z,96849.86
2019-05-11T15:01:14.633Z,96848.28
2019-05-11T15:03:40.081Z,96852.20
2019-05-11T15:06:08.334Z,96855.09
2019-05-11T15:08:35.242Z,96858.73
2019-05-11T15:11:02.009Z,96861.35
2019-05-11T15:13:28.955Z,96869.47
2019-05-11T15:15:55.752Z,96857.95
2019-05-11T15:18:35.258Z,96848.28
2019-05-11T15:20:51.052Z,96862.66
2019-05-11T15:23:18.231Z,96877.83
2019-05-11T15:25:45.215Z,96890.91
2019-05-11T15:28:11.975Z,96894.82
2019-05-11T15:30:38.783Z,96896.92
2019-05-11T15:33:07.581Z,96891.94
2019-05-11T15:35:34.077Z,96908.41
2019-05-11T15:38:00.860Z,96906.31
2019-05-11T15:40:28.001Z,96924.09
2019-05-11T15:42:54.875Z,96917.05
2019-05-11T15:45:21.648Z,96922.00
2019-05-11T15:47:49.001Z,96931.15
2019-05-11T15:50:18.669Z,96939.78
2019-05-11T15:52:44.580Z,96932.97
2019-05-11T15:55:11.362Z,96930.36
2019-05-11T15:57:38.677Z,96935.59
2019-05-11T16:00:05.592Z,96929.84
2019-05-11T16:02:32.432Z,96931.39
2019-05-11T16:04:59.244Z,96932.19
2019-05-11T16:07:28.042Z,96934.53
2019-05-11T16:09:54.522Z,96947.36
2019-05-11T16:12:21.308Z,96951.52
2019-05-11T16:14:48.608Z,96956.23
2019-05-11T16:17:15.421Z,96970.34
2019-05-11T16:19:42.236Z,96985.26
2019-05-11T16:22:10.030Z,96984.20
2019-05-11T16:24:39.813Z,96994.66
2019-05-11T16:27:05.582Z,97003.29
2019-05-11T16:29:32.408Z,97014.27
2019-05-11T16:31:59.254Z,97033.35
2019-05-11T16:34:27.750Z,97053.75
2019-05-11T16:36:54.586Z,97083.30
2019-05-11T16:39:21.365Z,97088.25
2019-05-11T16:41:48.655Z,97093.48
2019-05-11T16:44:18.279Z,97101.84
2019-05-11T16:46:44.220Z,97103.67
2019-05-11T16:49:24.986Z,97112.30
2019-05-11T16:51:39.569Z,97114.40
2019-05-11T16:54:06.351Z,97125.38
2019-05-11T16:56:33.219Z,97135.83
2019-05-11T16:59:00.004Z,97137.66
2019-05-11T17:01:26.798Z,97146.29
2019-05-11T17:03:53.622Z,97139.99
2019-05-11T17:06:20.400Z,97151.23
2019-05-11T17:08:48.702Z,97159.09
2019-05-11T17:11:15.650Z,97170.33
2019-05-11T17:13:42.422Z,97170.84
2019-05-11T17:16:09.197Z,97177.90
2019-05-11T17:18:35.981Z,97176.08
2019-05-11T17:21:02.770Z,97179.48
2019-05-11T17:23:31.039Z,97171.84
2019-05-11T17:25:58.160Z,97175.28
2019-05-11T17:28:25.036Z,97170.55
2019-05-11T17:30:51.844Z,97160.91
2019-05-11T17:33:18.670Z,97155.38
2019-05-11T17:35:45.433Z,97160.60
2019-05-11T17:38:12.214Z,97169.23
2019-05-11T17:40:38.993Z,97181.52
2019-05-11T17:43:05.762Z,97179.41
2019-05-11T17:45:32.569Z,97178.38
2019-05-11T17:47:59.362Z,97183.61
2019-05-11T17:50:28.163Z,97193.28
2019-05-11T17:52:55.066Z,97193.80
2019-05-11T17:55:21.852Z,97198.51
2019-05-11T17:57:50.442Z,97199.30
2019-05-11T18:00:17.138Z,97194.59
2019-05-11T18:02:43.914Z,97200.81
2019-05-11T18:05:10.722Z,97201.64
2019-05-11T18:07:38.551Z,97203.42
2019-05-11T18:10:07.975Z,97200.81
2019-05-11T18:12:34.118Z,97207.35
2019-05-11T18:15:00.895Z,97200.02
2019-05-11T18:17:27.681Z,97199.23
2019-05-11T18:19:54.447Z,97200.53
2019-05-11T18:22:21.240Z,97201.05
2019-05-11T18:24:49.006Z,97202.36
2019-05-11T18:27:18.333Z,97205.25
2019-05-11T18:29:44.488Z,97198.44
2019-05-11T18:32:11.287Z,97208.38
2019-05-11T18:34:38.063Z,97210.20
2019-05-11T18:37:04.904Z,97210.72
2019-05-11T18:39:31.716Z,97213.33
2019-05-11T18:41:58.833Z,97210.72
2019-05-11T18:44:25.724Z,97209.41
2019-05-11T18:46:52.499Z,97222.20
2019-05-11T18:49:19.264Z,97226.91
2019-05-11T18:51:48.161Z,97232.66
2019-05-11T18:54:14.533Z,97242.09
2019-05-11T18:56:41.316Z,97240.50
2019-05-11T18:59:08.885Z,97239.20
2019-05-11T19:01:38.008Z,97241.81
2019-05-11T19:04:04.500Z,97242.33
2019-05-11T19:06:31.276Z,97245.73
2019-05-11T19:08:58.181Z,97246.52
2019-05-11T19:11:25.165Z,97253.57
2019-05-11T19:13:51.973Z,97248.86
2019-05-11T19:16:18.945Z,97253.57
2019-05-11T19:18:47.846Z,97255.39
2019-05-11T19:21:14.239Z,97256.94
2019-05-11T19:23:41.039Z,97263.23
2019-05-11T19:26:08.349Z,97256.94
2019-05-11T19:28:35.266Z,97259.55
2019-05-11T19:31:02.042Z,97269.77
2019-05-11T19:33:28.842Z,97269.49
2019-05-11T19:35:55.619Z,97270.52
2019-05-11T19:38:22.398Z,97268.70
2019-05-11T19:40:49.170Z,97267.91
2019-05-11T19:43:18.354Z,97266.09
2019-05-11T19:45:44.426Z,97268.70
2019-05-11T19:48:11.236Z,97264.78
2019-05-11T19:50:40.839Z,97270.24
2019-05-11T19:53:08.415Z,97265.81
2019-05-11T19:55:35.009Z,97277.05
2019-05-11T19:58:01.772Z,97280.19
2019-05-11T20:00:28.724Z,97275.47
2019-05-11T20:02:55.506Z,97276.27
2019-05-11T20:05:22.278Z,97279.39
2019-05-11T20:07:49.163Z,97284.90
2019-05-11T20:10:18.540Z,97282.01
2019-05-11T20:12:44.717Z,97296.66
2019-05-11T20:15:11.536Z,97299.79
2019-05-11T20:17:39.184Z,97299.52
2019-05-11T20:20:08.673Z,97301.09
2019-05-11T20:22:34.643Z,97302.92
2019-05-11T20:25:01.468Z,97301.33
2019-05-11T20:27:28.384Z,97300.30
2019-05-11T20:29:55.134Z,97302.41
2019-05-11T20:32:21.912Z,97296.11
2019-05-11T20:34:48.691Z,97311.28
2019-05-11T20:37:15.491Z,97305.25
2019-05-11T20:39:42.262Z,97311.28
2019-05-11T20:42:09.054Z,97317.81
2019-05-11T20:44:37.882Z,97320.94
2019-05-11T20:47:04.351Z,97320.14
2019-05-11T20:49:31.127Z,97320.42
2019-05-11T20:51:58.157Z,97320.94
2019-05-11T20:54:25.003Z,97321.45
2019-05-11T20:56:51.794Z,97326.95
2019-05-11T20:59:18.570Z,97327.98
2019-05-11T21:01:45.358Z,97334.80
2019-05-11T21:04:12.147Z,97340.03
2019-05-11T21:06:38.938Z,97340.55
2019-05-11T21:09:06.626Z,97344.47
2019-05-11T21:11:33.393Z,97343.16
2019-05-11T21:14:00.180Z,97339.75
2019-05-11T21:16:26.947Z,97347.59
2019-05-11T21:18:53.739Z,97347.08
2019-05-11T21:21:20.526Z,97348.90
2019-05-11T21:23:48.792Z,97357.54
2019-05-11T21:26:15.959Z,97357.25
2019-05-11T21:28:42.840Z,97361.18
2019-05-11T21:31:09.623Z,97363.28
2019-05-11T21:33:37.935Z,97357.25
2019-05-11T21:36:04.872Z,97369.53
2019-05-11T21:38:31.953Z,97366.41
2019-05-11T21:40:58.798Z,97372.15
2019-05-11T21:43:25.677Z,97376.86
2019-05-11T21:45:52.444Z,97386.52
2019-05-11T21:48:19.235Z,97391.75
2019-05-11T21:50:46.028Z,97391.75
2019-05-11T21:53:12.805Z,97398.80
2019-05-11T21:55:39.571Z,97399.59
2019-05-11T21:58:08.864Z,97399.59
2019-05-11T22:00:34.863Z,97405.62
2019-05-11T22:03:01.700Z,97411.88
2019-05-11T22:05:29.117Z,97410.56
2019-05-11T22:07:58.116Z,97407.95
2019-05-11T22:10:24.520Z,97415.80
2019-05-11T22:12:51.317Z,97411.08
2019-05-11T22:15:18.087Z,97418.41
2019-05-11T22:17:44.876Z,97422.84
2019-05-11T22:20:11.703Z,97416.30
2019-05-11T22:22:39.181Z,97424.15
2019-05-11T22:25:07.872Z,97427.55
2019-05-11T22:27:34.584Z,97426.76
2019-05-11T22:30:01.372Z,97426.25
2019-05-11T22:32:28.599Z,97422.05
2019-05-11T22:34:55.546Z,97424.66
2019-05-11T22:37:22.332Z,97431.98
2019-05-11T22:39:49.592Z,97435.40
2019-05-11T22:42:18.322Z,97432.27
2019-05-11T22:44:44.995Z,97438.02
2019-05-11T22:47:11.766Z,97439.83
2019-05-11T22:49:38.566Z,97438.52
2019-05-11T22:52:05.360Z,97441.14
2019-05-11T22:54:32.498Z,97443.75
2019-05-11T22:56:59.379Z,97441.66
2019-05-11T22:59:28.114Z,97442.45
2019-05-11T23:01:54.700Z,97445.34
2019-05-11T23:04:21.470Z,97442.45
2019-05-11T23:06:48.248Z,97447.67
2019-05-11T23:09:15.034Z,97437.22
2019-05-11T23:11:41.866Z,97443.75
2019-05-11T23:14:10.022Z,97442.73
2019-05-11T23:16:37.185Z,97448.98
2019-05-11T23:19:03.949Z,97448.98
2019-05-11T23:21:30.722Z,97451.59
2019-05-11T23:23:58.331Z,97450.80
2019-05-11T23:26:25.270Z,97452.11
2019-05-11T23:28:52.044Z,97458.13
2019-05-11T23:31:18.842Z,97458.13
2019-05-11T23:33:45.682Z,97462.56
2019-05-11T23:36:12.457Z,97469.09
2019-05-11T23:38:39.251Z,97473.02
2019-05-11T23:41:08.144Z,97469.38
2019-05-11T23:43:34.602Z,97469.38
2019-05-11T23:46:01.382Z,97471.20
2019-05-11T23:48:28.192Z,97468.30
2019-05-11T23:50:54.992Z,97470.92
2019-05-11T23:53:21.774Z,97468.59
2019-05-11T23:55:48.562Z,97465.69
2019-05-11T23:58:15.338Z,97465.69
